createdAt,value
2022-08-09T00:02:56.923Z,3.28
2022-08-09T00:08:03.213Z,3.08
2022-08-09T00:13:16.830Z,3.25
2022-08-09T00:18:21.320Z,3.13
2022-08-09T00:23:54.842Z,3.10
2022-08-09T00:28:52.605Z,3.13
2022-08-09T00:33:59.144Z,3.10
2022-08-09T00:39:07.106Z,3.17
2022-08-09T00:44:26.290Z,3.00
2022-08-09T00:49:36.813Z,3.17
2022-08-09T00:54:41.998Z,3.08
2022-08-09T00:59:52.388Z,2.75
2022-08-09T01:05:03.824Z,3.25
2022-08-09T01:10:31.975Z,3.20
2022-08-09T01:15:51.881Z,3.05
2022-08-09T01:21:21.637Z,3.10
2022-08-09T01:26:55.447Z,2.97
2022-08-09T01:32:30.360Z,3.47
2022-08-09T01:38:05.488Z,3.42
2022-08-09T01:42:55.459Z,3.63
2022-08-09T01:48:01.820Z,3.53
2022-08-09T01:53:19.517Z,4.15
2022-08-09T01:58:27.318Z,4.63
2022-08-09T02:03:36.186Z,5.03
2022-08-09T02:08:58.782Z,5.45
2022-08-09T02:14:07.843Z,5.20
2022-08-09T02:19:12.704Z,5.15
2022-08-09T02:24:26.418Z,4.28
2022-08-09T02:29:35.403Z,4.70
2022-08-09T02:34:51.823Z,4.90
2022-08-09T02:45:16.902Z,4.40
2022-08-09T02:50:39.023Z,4.53
2022-08-09T02:55:57.502Z,4.60
2022-08-09T03:06:09.790Z,4.30
2022-08-09T03:11:30.141Z,4.40
2022-08-09T03:16:45.041Z,4.25
2022-08-09T03:21:51.714Z,4.03
2022-08-09T03:26:57.428Z,4.07
2022-08-09T03:32:01.402Z,3.88
2022-08-09T03:37:10.696Z,4.47
2022-08-09T03:42:30.860Z,4.78
2022-08-09T03:47:36.711Z,4.50
2022-08-09T03:52:46.127Z,4.50
2022-08-09T03:58:03.201Z,4.82
2022-08-09T04:03:11.869Z,5.38
2022-08-09T04:08:28.891Z,5.43
2022-08-09T04:14:36.708Z,5.75
2022-08-09T04:19:02.213Z,5.45
2022-08-09T04:24:06.430Z,4.75
2022-08-09T04:29:15.500Z,4.68
2022-08-09T04:34:30.762Z,5.03
2022-08-09T04:39:40.700Z,4.70
2022-08-09T04:44:49.313Z,4.93
2022-08-09T04:49:55.889Z,5.38
2022-08-09T04:55:04.257Z,5.10
2022-08-09T05:00:16.886Z,5.93
2022-08-09T05:05:32.353Z,5.38
2022-08-09T05:10:45.526Z,6.22
2022-08-09T05:15:52.235Z,5.10
2022-08-09T05:21:00.962Z,5.43
2022-08-09T05:26:04.567Z,4.97
2022-08-09T05:31:09.640Z,4.65
2022-08-09T05:36:14.917Z,4.90
2022-08-09T05:41:19.349Z,5.00
2022-08-09T05:46:23.278Z,5.15
2022-08-09T05:51:42.332Z,5.18
2022-08-09T05:56:55.379Z,5.15
2022-08-09T06:02:00.302Z,4.20
2022-08-09T06:07:05.603Z,4.82
2022-08-09T06:12:12.122Z,4.07
2022-08-09T06:17:19.339Z,4.68
2022-08-09T06:22:28.784Z,4.03
2022-08-09T06:27:42.470Z,4.05
2022-08-09T06:32:58.956Z,3.95
2022-08-09T06:38:11.669Z,3.70
2022-08-09T06:43:19.470Z,3.47
2022-08-09T06:48:30.398Z,3.97
2022-08-09T06:53:38.457Z,3.80
2022-08-09T07:00:54.267Z,4.07
2022-08-09T07:04:06.539Z,3.90
2022-08-09T07:09:53.620Z,3.33
2022-08-09T07:14:37.651Z,3.42
2022-08-09T07:19:42.348Z,3.80
2022-08-09T07:24:49.576Z,3.63
2022-08-09T07:29:57.135Z,3.42
2022-08-09T07:35:00.766Z,2.97
2022-08-09T07:40:06.532Z,3.10
2022-08-09T07:45:22.833Z,3.10
2022-08-09T07:50:41.320Z,2.65
2022-08-09T07:56:03.499Z,3.10
2022-08-09T08:01:11.415Z,2.63
2022-08-09T08:06:14.988Z,2.58
2022-08-09T08:12:10.577Z,2.10
2022-08-09T08:16:51.097Z,2.03
2022-08-09T08:22:05.562Z,2.10
2022-08-09T08:27:16.683Z,2.10
2022-08-09T08:32:28.743Z,2.03
2022-08-09T08:37:40.843Z,1.95
2022-08-09T08:42:58.890Z,2.00
2022-08-09T08:48:03.661Z,1.70
2022-08-09T08:53:15.897Z,1.80
2022-08-09T08:58:26.055Z,1.80
2022-08-09T09:03:37.530Z,2.03
2022-08-09T09:08:52.747Z,1.83
2022-08-09T09:14:15.703Z,1.80
2022-08-09T09:19:40.098Z,1.80
2022-08-09T09:24:49.436Z,1.60
2022-08-09T09:30:13.935Z,1.80
2022-08-09T09:35:17.749Z,1.90
2022-08-09T09:40:21.331Z,1.70
2022-08-09T09:45:29.605Z,1.70
2022-08-09T09:50:50.535Z,2.08
2022-08-09T09:56:05.305Z,1.80
2022-08-09T10:01:36.822Z,1.67
2022-08-09T10:06:46.948Z,1.48
2022-08-09T10:12:12.941Z,1.58
2022-08-09T10:17:50.609Z,1.50
2022-08-09T10:23:01.228Z,1.80
2022-08-09T10:28:05.124Z,1.30
2022-08-09T10:33:10.319Z,1.42
2022-08-09T10:38:57.003Z,1.33
2022-08-09T10:43:59.260Z,1.73
2022-08-09T10:49:50.949Z,1.83
2022-08-09T10:54:54.944Z,1.75
2022-08-09T11:00:01.430Z,1.40
2022-08-09T11:05:25.340Z,1.50
2022-08-09T11:10:47.094Z,1.63
2022-08-09T11:16:37.706Z,1.50
2022-08-09T11:21:55.158Z,1.58
2022-08-09T11:28:03.633Z,1.67
2022-08-09T11:33:24.967Z,1.58
2022-08-09T11:38:34.962Z,1.55
2022-08-09T11:43:51.739Z,1.38
2022-08-09T11:48:58.976Z,1.42
2022-08-09T11:54:27.500Z,1.27
2022-08-09T11:59:34.168Z,1.40
2022-08-09T12:04:38.216Z,1.35
2022-08-09T12:09:51.051Z,1.83
2022-08-09T12:15:07.393Z,1.20
2022-08-09T12:20:23.228Z,1.45
2022-08-09T12:25:36.492Z,1.27
2022-08-09T12:30:44.550Z,1.40
2022-08-09T12:35:48.385Z,1.20
2022-08-09T12:46:00.938Z,1.75
2022-08-09T12:51:04.905Z,1.50
2022-08-09T12:56:36.954Z,1.30
2022-08-09T13:01:48.866Z,1.50
2022-08-09T13:06:54.071Z,1.65
2022-08-09T13:12:05.869Z,1.35
2022-08-09T13:17:44.290Z,1.60
2022-08-09T13:23:05.185Z,1.50
2022-08-09T13:28:18.977Z,1.80
2022-08-09T13:33:53.132Z,1.80
2022-08-09T13:38:57.222Z,1.30
2022-08-09T13:44:05.322Z,1.58
2022-08-09T13:49:18.511Z,1.25
2022-08-09T13:54:21.760Z,1.33
2022-08-09T13:59:37.065Z,1.20
2022-08-09T14:04:49.409Z,1.40
2022-08-09T14:10:03.341Z,1.15
2022-08-09T14:16:06.906Z,1.30
2022-08-09T14:20:31.178Z,1.30
2022-08-09T14:25:42.836Z,1.50
2022-08-09T14:30:46.971Z,1.17
2022-08-09T14:35:52.370Z,1.20
2022-08-09T14:41:04.404Z,1.10
2022-08-09T14:46:56.151Z,1.30
2022-08-09T14:51:46.744Z,1.20
2022-08-09T14:56:53.587Z,1.30
2022-08-09T15:02:01.404Z,1.20
2022-08-09T15:07:05.774Z,1.10
2022-08-09T15:12:13.570Z,1.20
2022-08-09T15:17:17.151Z,0.98
2022-08-09T15:22:20.775Z,1.10
2022-08-09T15:27:25.270Z,1.35
2022-08-09T15:32:30.573Z,1.48
2022-08-09T15:37:57.062Z,1.30
2022-08-09T15:43:00.032Z,1.25
2022-08-09T15:48:20.236Z,1.45
2022-08-09T15:54:04.878Z,1.42
2022-08-09T15:58:55.169Z,1.17
2022-08-09T16:03:58.489Z,1.27
2022-08-09T16:09:04.893Z,1.15
2022-08-09T16:14:08.511Z,1.40
2022-08-09T16:19:14.064Z,1.10
2022-08-09T16:24:29.667Z,1.27
2022-08-09T16:29:49.771Z,1.10
2022-08-09T16:34:58.058Z,1.10
2022-08-09T16:40:04.409Z,1.45
2022-08-09T16:45:10.061Z,1.33
2022-08-09T16:50:30.097Z,1.05
2022-08-09T16:56:01.331Z,1.15
2022-08-09T17:01:00.002Z,1.25
2022-08-09T17:06:28.493Z,1.52
2022-08-09T17:11:40.811Z,1.27
2022-08-09T17:16:48.032Z,1.35
2022-08-09T17:21:54.716Z,1.42
2022-08-09T17:26:59.024Z,1.17
2022-08-09T17:32:02.939Z,1.30
2022-08-09T17:37:06.055Z,1.60
2022-08-09T17:42:55.363Z,1.52
2022-08-09T17:47:49.967Z,1.30
2022-08-09T17:52:58.197Z,1.30
2022-08-09T17:58:08.784Z,1.30
2022-08-09T18:03:13.850Z,1.50
2022-08-09T18:08:16.934Z,1.27
2022-08-09T18:13:40.555Z,1.27
2022-08-09T18:18:48.939Z,1.30
2022-08-09T18:24:11.543Z,1.48
2022-08-09T18:30:34.598Z,1.17
2022-08-09T18:34:41.625Z,1.70
2022-08-09T18:39:48.494Z,1.58
2022-08-09T18:44:52.756Z,1.77
2022-08-09T18:49:55.951Z,2.00
2022-08-09T18:55:13.486Z,1.80
2022-08-09T19:00:20.352Z,1.80
2022-08-09T19:05:48.761Z,1.67
2022-08-09T19:10:50.778Z,1.60
2022-08-09T19:15:57.176Z,1.90
2022-08-09T19:21:02.550Z,1.73
2022-08-09T19:26:05.707Z,1.85
2022-08-09T19:31:09.975Z,1.60
2022-08-09T19:36:15.754Z,1.80
2022-08-09T19:41:33.190Z,1.70
2022-08-09T19:51:57.741Z,1.80
2022-08-09T19:57:01.186Z,1.88
2022-08-09T20:02:36.194Z,1.83
2022-08-09T20:07:56.852Z,2.10
2022-08-09T20:12:55.051Z,2.10
2022-08-09T20:18:00.235Z,1.92
2022-08-09T20:23:07.561Z,1.70
2022-08-09T20:28:12.920Z,1.88
2022-08-09T20:33:41.030Z,2.00
2022-08-09T20:39:28.853Z,2.10
2022-08-09T20:44:10.812Z,1.80
2022-08-09T20:49:16.109Z,1.70
2022-08-09T20:54:20.272Z,1.50
2022-08-09T21:00:19.576Z,1.70
2022-08-09T21:05:57.823Z,2.10
2022-08-09T21:10:12.627Z,1.90
2022-08-09T21:15:17.080Z,1.73
2022-08-09T21:20:25.772Z,1.63
2022-08-09T21:25:55.937Z,1.60
2022-08-09T21:31:16.501Z,1.90
2022-08-09T21:36:23.964Z,1.80
2022-08-09T21:42:04.147Z,2.00
2022-08-09T21:46:57.414Z,2.00
2022-08-09T21:52:01.113Z,1.77
2022-08-09T21:57:04.551Z,2.10
2022-08-09T22:02:09.175Z,2.00
2022-08-09T22:07:23.362Z,1.90
2022-08-09T22:12:49.743Z,1.90
2022-08-09T22:17:53.080Z,2.10
2022-08-09T22:22:59.141Z,2.30
2022-08-09T22:28:07.251Z,2.22
2022-08-09T22:33:10.782Z,2.08
2022-08-09T22:38:14.722Z,2.20
2022-08-09T22:44:00.577Z,1.92
2022-08-09T22:48:50.676Z,2.10
2022-08-09T22:54:02.633Z,2.10
2022-08-09T22:59:57.702Z,2.35
2022-08-09T23:04:32.883Z,2.20
2022-08-09T23:09:36.081Z,2.05
2022-08-09T23:14:42.500Z,1.98
2022-08-09T23:20:00.823Z,2.15
2022-08-09T23:25:09.326Z,2.22
2022-08-09T23:30:12.618Z,2.30
2022-08-09T23:35:16.145Z,2.53
2022-08-09T23:40:19.927Z,2.30
2022-08-09T23:45:36.838Z,2.50
2022-08-09T23:50:41.714Z,2.53
2022-08-09T23:55:49.765Z,2.33
